Latest Weather Observations for Toolara

IDQ60801

Issued at 9:05 pm EST Tuesday 16 September 2014 (issued every 30 minutes, with the page automatically refreshed every 10 minutes)

About weather observations | Map of weather stations | Latest weather observations for QLD | Other Formats
Station Details ID: 040555 Name: TOOLARA (KELLY) Lat: -25.97 Lon: 152.86 Height: 143.0 m
Data from the previous 72 hours. | See also: Recent months at Toolara
Date/Time
EST
Temp
°C
App
Temp
°C
Dew
Point
Rel
Hum
%
Delta-T
°C
Wind Press
QNH
hPa
Press
MSL
hPa
Rain
since 9 am
mm
Dir
 
Spd
km/h
Gust
km/h
Spd
kts
Gust
kts
16/09:00pm 17.3 16.2 15.3 88 1.2 - 15 19 8 10 - - 0.0
16/08:30pm 17.3 16.2 14.4 83 1.7 - 13 17 7 9 - - -
16/08:00pm 17.8 - 14.1 79 2.1 - - - - - - - -
16/07:30pm 18.2 15.7 13.5 74 2.7 - 19 24 10 13 - - -
16/07:00pm 18.5 - 12.9 70 3.2 - - - - - - - -
16/06:30pm 19.0 - 13.4 70 3.2 - - - - - - - -
16/06:00pm 19.5 - 13.4 68 3.5 - - - - - - - -
16/05:30pm 20.5 - 13.0 62 4.3 - - - - - - - -
16/05:00pm 21.5 - 13.7 61 4.5 - - - - - - - -
16/04:30pm 22.3 - 13.9 59 4.9 - - - - - - - -
16/04:00pm 23.4 - 14.1 56 5.5 - - - - - - - -
16/03:30pm 24.4 - 14.5 54 5.9 - - - - - - - -
16/03:00pm 24.8 - 14.3 52 6.3 - - - - - - - 0.0
16/02:30pm 25.6 - 13.5 47 7.1 - - - - - - - -
16/02:00pm 26.3 - 13.8 46 7.4 - - - - - - - -
16/01:30pm 27.6 - 12.8 40 8.7 - - - - - - - -
16/01:00pm 27.7 - 13.3 41 8.5 - - - - - - - -
16/12:30pm 26.3 - 12.4 42 8.1 - - - - - - - -
16/12:00pm 26.4 - 13.9 46 7.5 - - - - - - - -
16/11:30am 25.6 - 15.0 52 6.4 - - - - - - - -
16/11:00am 24.5 - 14.6 54 5.9 - - - - - - - -
16/10:30am 24.2 - 16.2 61 4.9 - - - - - - - -
16/10:00am 23.9 - 17.2 66 4.2 - - - - - - - -
16/09:30am 21.3 - 16.5 74 2.9 - - - - - - - -
16/09:00am 20.8 - 17.4 81 2.1 - - - - - - - 0.0
16/08:30am 18.9 19.5 17.6 92 0.8 - 11 15 6 8 - - -
16/08:00am 16.8 - 16.8 100 0.0 - - - - - - - -
16/07:30am 15.4 - 15.4 100 0.0 - - - - - - - -
16/07:00am 14.4 - 14.4 100 0.0 - - - - - - - -
16/06:30am 14.0 13.1 13.8 99 0.1 - 11 13 6 7 - - -
16/06:00am 14.4 - 14.2 99 0.1 - - - - - - - -
16/05:30am 14.4 - 14.2 99 0.1 - - - - - - - -
16/05:00am 14.4 - 14.2 99 0.1 - - - - - - - -
16/04:30am 14.4 - 14.2 99 0.1 - - - - - - - -
16/04:00am 14.9 - 14.6 98 0.2 - - - - - - - -
16/03:30am 15.4 - 14.9 97 0.3 - - - - - - - -
16/03:00am 15.5 - 15.0 97 0.3 - - - - - - - 0.0
16/02:30am 15.4 - 14.6 95 0.5 - - - - - - - -
16/02:00am 15.3 - 14.2 93 0.6 - - - - - - - -
16/01:30am 15.5 - 14.4 93 0.6 - - - - - - - -
16/01:00am 15.6 - 14.3 92 0.7 - - - - - - - -
16/12:30am 16.2 - 14.9 92 0.8 - - - - - - - -
16/12:00am 16.4 - 14.9 91 0.9 - - - - - - - -
 
Date/Time
EST
Temp
°C
App
Temp
°C
Dew
Point
Rel
Hum
%
Delta-T
°C
Wind Press
QNH
hPa
Press
MSL
hPa
Rain
since 9 am
mm
Dir
 
Spd
km/h
Gust
km/h
Spd
kts
Gust
kts
15/11:30pm 16.6 - 14.8 89 1.0 - - - - - - - -
15/11:00pm 16.5 - 14.5 88 1.2 - - - - - - - -
15/10:30pm 16.6 - 14.2 86 1.4 - - - - - - - -
15/10:00pm 16.5 - 13.6 83 1.6 - - - - - - - -
15/09:30pm 16.9 - 13.6 81 1.9 - - - - - - - -
15/09:00pm 17.1 - 13.4 79 2.1 - - - - - - - 0.0
15/08:30pm 17.1 - 13.2 78 2.2 - - - - - - - -
15/08:00pm 17.1 - 13.0 77 2.3 - - - - - - - -
15/07:30pm 17.2 - 12.9 76 2.4 - - - - - - - -
15/07:00pm 17.5 - 12.8 74 2.6 - - - - - - - -
15/06:30pm 18.2 - 12.9 71 3.0 - - - - - - - -
15/06:00pm 18.5 - 12.5 68 3.4 - - - - - - - -
15/05:30pm 19.0 - 12.7 67 3.6 - - - - - - - -
15/05:00pm 19.8 - 12.6 63 4.1 - - - - - - - -
15/04:30pm 20.5 - 11.7 57 4.9 - - - - - - - -
15/04:00pm 21.4 - 12.3 56 5.2 - - - - - - - -
15/03:30pm 22.4 - 12.4 53 5.7 - - - - - - - -
15/03:00pm 23.3 - 12.9 52 6.0 - - - - - - - 0.0
15/02:30pm 24.6 - 13.8 51 6.4 - - - - - - - -
15/02:00pm 25.1 - 13.9 49 6.6 - - - - - - - -
15/01:30pm 25.4 - 13.6 48 7.0 - - - - - - - -
15/01:00pm 25.5 - 12.7 45 7.5 - - - - - - - -
15/12:30pm 25.6 - 12.8 45 7.5 - - - - - - - -
15/12:00pm 25.8 - 13.6 47 7.2 - - - - - - - -
15/11:30am 25.8 - 14.3 49 6.9 - - - - - - - -
15/11:00am 23.2 - 13.4 54 5.7 - - - - - - - -
15/10:30am 23.4 - 14.4 57 5.3 - - - - - - - -
15/10:00am 22.6 - 14.7 61 4.7 - - - - - - - -
15/09:30am 21.7 - 15.3 67 3.8 - - - - - - - -
15/09:00am 19.2 - 14.2 73 2.9 - - - - - - - 0.0
15/08:30am 18.0 - 14.1 78 2.2 - - - - - - - -
15/08:00am 16.1 - 13.8 86 1.3 - - - - - - - -
15/07:30am 14.3 - 12.3 88 1.1 - - - - - - - -
15/07:00am 13.9 - 11.6 86 1.2 - - - - - - - -
15/06:30am 14.3 - 11.8 85 1.4 - - - - - - - -
15/06:00am 14.1 - 11.8 86 1.2 - - - - - - - -
15/05:30am 14.4 - 11.9 85 1.4 - - - - - - - -
15/05:00am 14.7 - 12.0 84 1.5 - - - - - - - -
15/04:30am 14.4 - 11.9 85 1.4 - - - - - - - -
15/04:00am 14.4 - 12.1 86 1.3 - - - - - - - -
15/03:30am 14.1 - 12.0 87 1.1 - - - - - - - -
15/03:00am 13.9 - 11.8 87 1.1 - - - - - - - 0.0
15/02:30am 14.1 - 11.4 84 1.4 - - - - - - - -
15/02:00am 14.5 - 11.5 82 1.6 - - - - - - - -
15/01:30am 15.1 - 12.1 82 1.6 - - - - - - - -
15/01:00am 14.7 - 11.8 83 1.6 - - - - - - - -
15/12:30am 15.2 - 12.1 82 1.7 - - - - - - - -
15/12:00am 14.9 - 11.7 81 1.7 - - - - - - - -
 
Date/Time
EST
Temp
°C
App
Temp
°C
Dew
Point
Rel
Hum
%
Delta-T
°C
Wind Press
QNH
hPa
Press
MSL
hPa
Rain
since 9 am
mm
Dir
 
Spd
km/h
Gust
km/h
Spd
kts
Gust
kts
14/11:30pm 15.4 - 12.2 81 1.8 - - - - - - - -
14/11:00pm 15.0 - 11.8 81 1.7 - - - - - - - -
14/10:30pm 15.0 - 11.4 79 1.9 - - - - - - - -
14/10:00pm 16.3 - 12.1 76 2.3 - - - - - - - -
14/09:30pm 16.3 - 12.3 77 2.2 - - - - - - - -
14/09:00pm 16.0 - 11.8 76 2.3 - - - - - - - 0.0
14/08:30pm 16.3 - 12.1 76 2.3 - - - - - - - -
14/08:00pm 16.2 - 11.8 75 2.4 - - - - - - - -
14/07:30pm 16.3 - 11.7 74 2.5 - - - - - - - -
14/07:00pm 16.2 - 11.6 74 2.5 - - - - - - - -
14/06:30pm 16.5 - 11.6 73 2.7 - - - - - - - -
14/06:00pm 17.0 - 11.7 71 2.9 - - - - - - - -
14/05:30pm 17.9 - 11.5 66 3.5 - - - - - - - -
14/05:00pm 18.8 - 11.4 62 4.1 - - - - - - - -
14/04:30pm 19.5 - 11.0 58 4.7 - - - - - - - -
14/04:00pm 20.4 - 11.1 55 5.1 - - - - - - - -
14/03:30pm 21.2 - 11.0 52 5.6 - - - - - - - -
14/03:00pm 21.8 - 11.2 51 5.9 - - - - - - - 0.0
14/02:30pm 23.0 - 12.6 52 6.0 - - - - - - - -
14/02:00pm 23.8 - 12.8 50 6.4 - - - - - - - -
14/01:30pm 21.5 - 11.2 52 5.7 - - - - - - - -
14/01:00pm 24.2 - 13.1 50 6.5 - - - - - - - -
14/12:30pm 24.3 - 13.8 52 6.2 - - - - - - - -
14/12:00pm 23.9 - 14.6 56 5.5 - - - - - - - -
14/11:30am 24.4 - 14.5 54 5.9 - - - - - - - -
14/11:00am 21.3 - 12.4 57 5.1 - - - - - - - -
14/10:30am 22.2 - 13.8 59 4.9 - - - - - - - -
14/10:00am 22.8 - 16.1 66 4.1 - - - - - - - -
14/09:30am 19.8 - 14.0 69 3.4 - - - - - - - -
14/09:00am 20.6 - 14.5 68 3.6 - - - - - - - 0.0
14/08:30am 21.1 - 16.3 74 2.9 - - - - - - - -
14/08:00am 18.1 - 15.7 86 1.4 - - - - - - - -
14/07:30am 15.8 - 14.0 89 1.0 - - - - - - - -
14/07:00am 14.9 - 13.4 91 0.8 - - - - - - - -
14/06:30am 14.3 - 13.0 92 0.7 - - - - - - - -
14/06:00am 14.7 - 13.2 91 0.8 - - - - - - - -
14/05:30am 14.9 - 13.3 90 0.9 - - - - - - - -
14/05:00am 15.2 - 13.2 88 1.1 - - - - - - - -
14/04:30am 14.8 - 12.8 88 1.1 - - - - - - - -
14/04:00am 15.0 - 12.9 87 1.2 - - - - - - - -
14/03:30am 15.3 - 12.8 85 1.4 - - - - - - - -
14/03:00am 15.5 - 13.0 85 1.4 - - - - - - - 0.0
14/02:30am 15.4 - 13.1 86 1.3 - - - - - - - -
14/02:00am 14.9 - 12.8 87 1.2 - - - - - - - -
14/01:30am 15.3 - 12.8 85 1.4 - - - - - - - -
14/01:00am 15.8 - 13.1 84 1.5 - - - - - - - -
14/12:30am 15.8 - 13.1 84 1.5 - - - - - - - -
14/12:00am 15.9 - 13.2 84 1.5 - - - - - - - -
 
Date/Time
EST
Temp
°C
App
Temp
°C
Dew
Point
Rel
Hum
%
Delta-T
°C
Wind Press
QNH
hPa
Press
MSL
hPa
Rain
since 9 am
mm
Dir
 
Spd
km/h
Gust
km/h
Spd
kts
Gust
kts
13/11:30pm 15.5 - 12.6 83 1.6 - - - - - - - -
13/11:00pm 16.1 - 12.8 81 1.8 - - - - - - - -
13/10:30pm 16.1 - 12.8 81 1.8 - - - - - - - -
13/10:00pm 15.8 - 12.4 80 1.9 - - - - - - - -
13/09:30pm 16.3 - 12.5 78 2.1 - - - - - - - -

Other Formats:

Comma delimited format used in spreadsheet applications
http://www.bom.gov.au/fwo/IDQ60801/IDQ60801.94558.axf

JavaScript Object Notation format (JSON) in row-major order
http://www.bom.gov.au/fwo/IDQ60801/IDQ60801.94558.json